Details From CYGL - LA GRANDE RIVIERE
To CYYR - Goose Bay
Flight Number -
Tags decoded
Created
Modified
Stats Distance 616 nm / 1,142 km
Max Altitude 0 ft / 0 m
Waypoints 2
Social Downloads 0
Likes 0
Share VATSIM

Download

Looking for another format? Having issues loading an existing format? Contact us
Advertisement - Login to hide

Notes

Requested: CYGL CYYR

Route

CYGL CYYR

ID Type Via Altitude Latitude Longitude Leg Dist Tot Dist Heading (true) Name
O CYGL APT - 0 ft / 0 m 53.62537˚ -77.70412˚ - 0 nm - LA GRANDE RIVIERE
O CYYR APT - 0 ft / 0 m 53.31882˚ -60.42389˚ 616 nm 616 nm 85° / 99° Goose Bay

Altitude Profile

Advertisement - Login to hide

Weather


0- 5 10 15 20 25 30 35+ Temperature / ° C

Clouds and Precipitation
Forecast for 2017-12-19 00:00 UTC. Updated an hour ago

Ground ~20,000 ft ~40,000 ft Winds

CYGL

Details ICAO CYGL (YGL)
Name LA GRANDE RIVIERE
Region Canada
Timezone America/Montreal (UTC-5.0)
Stats Elevation 639 ft / 195 m (AMSL)
Location 53.625369° -77.704115°
Runways 1
Magnetic Variation 15.323° W

METAR

CYGL 182000Z 19010G20KT 4SM -SN OVC004 M07/M09 A2943 RMK SF8 SLP986

Decode

TAF

TAF CYGL 181738Z 1818/1918 18012G22KT 21/2SM -SN OVC006 TEMPO 1818/1901 6SM -SN OVC012 FM190100 18012G22KT 11/2SM -SN OVC006 TEMPO 1901/1912 4SM -SN OVC010 FM191200 20012G22KT 21/2SM -SN OVC010 RMK NXT FCST BY 190000Z

Decode

Departure Runways

ID Width Length Bearing (true) Bearing (mag) Surface Threshold Offset Overrun Length
13 150 ft / 46 m 6,469 ft / 1,972 m 113.03° 128.35° Asphalt 0 ft / 0 m 0 ft / 0 m
31 150 ft / 46 m 6,469 ft / 1,972 m 293.05° 308.37° Asphalt 0 ft / 0 m 0 ft / 0 m

CYYR

Details ICAO CYYR (YYR)
Name Goose Bay
Region Canada
Timezone America/Goose_Bay (UTC-4.0)
Stats Elevation 160 ft / 49 m (AMSL)
Location 53.318820° -60.423890°
Runways 2
Magnetic Variation 20.961° W

METAR

CYYR 182025Z 25008KT 8SM -SN OVC056 M18/M24 A2977 RMK SC8 SLP088

Decode

TAF

TAF AMD CYYR 181923Z 1819/1918 25008KT P6SM BKN080 BECMG 1819/1821 P6SM -SN OVC040 FM190600 21005KT P6SM BKN060 RMK NXT FCST BY 190000Z

Decode

Destination Runways

ID Width Length Bearing (true) Bearing (mag) Surface Threshold Offset Overrun Length
08 209 ft / 64 m 11,055 ft / 3,369 m 54.70° 75.66° Asphalt 0 ft / 0 m 1,000 ft / 305 m
16 200 ft / 61 m 9,515 ft / 2,900 m 132.96° 153.92° Asphalt 0 ft / 0 m 0 ft / 0 m
26 209 ft / 64 m 11,055 ft / 3,369 m 234.73° 255.69° Asphalt 0 ft / 0 m 1,000 ft / 305 m
34 200 ft / 61 m 9,515 ft / 2,900 m 312.99° 333.95° Asphalt 0 ft / 0 m 500 ft / 152 m